sensor_id;sensor_type;location;lat;lon;timestamp;pressure;altitude;pressure_sealevel;temperature;humidity
6942;BME280;3510;43.200;27.920;2022-12-10T00:02:27;100480.91;;;20.51;53.97
6942;BME280;3510;43.200;27.920;2022-12-10T00:05:05;100538.09;;;21.21;53.67
6942;BME280;3510;43.200;27.920;2022-12-10T00:07:32;100555.38;;;20.59;54.96
6942;BME280;3510;43.200;27.920;2022-12-10T00:09:59;100562.53;;;21.13;53.87
6942;BME280;3510;43.200;27.920;2022-12-10T00:12:26;100555.69;;;20.89;54.30
6942;BME280;3510;43.200;27.920;2022-12-10T00:14:53;100531.66;;;20.63;54.41
6942;BME280;3510;43.200;27.920;2022-12-10T00:17:20;100541.22;;;20.69;54.54
6942;BME280;3510;43.200;27.920;2022-12-10T00:19:49;100487.16;;;20.16;55.47
6942;BME280;3510;43.200;27.920;2022-12-10T00:22:17;100519.59;;;20.17;55.48
6942;BME280;3510;43.200;27.920;2022-12-10T00:24:44;100482.38;;;20.46;54.60
6942;BME280;3510;43.200;27.920;2022-12-10T00:27:12;100544.59;;;20.89;54.08
6942;BME280;3510;43.200;27.920;2022-12-10T00:29:40;100545.16;;;20.82;54.37
6942;BME280;3510;43.200;27.920;2022-12-10T00:32:07;100525.91;;;20.48;55.33
6942;BME280;3510;43.200;27.920;2022-12-10T00:34:34;100514.50;;;20.61;54.86
6942;BME280;3510;43.200;27.920;2022-12-10T00:37:03;100532.00;;;20.72;54.87
6942;BME280;3510;43.200;27.920;2022-12-10T00:39:30;100523.16;;;20.64;55.08
6942;BME280;3510;43.200;27.920;2022-12-10T00:41:57;100520.56;;;20.63;54.94
6942;BME280;3510;43.200;27.920;2022-12-10T00:44:24;100516.31;;;20.42;55.27
6942;BME280;3510;43.200;27.920;2022-12-10T00:46:51;100518.91;;;20.65;54.83
6942;BME280;3510;43.200;27.920;2022-12-10T00:49:18;100509.72;;;20.47;55.05
6942;BME280;3510;43.200;27.920;2022-12-10T00:51:48;100519.72;;;19.61;58.09
6942;BME280;3510;43.200;27.920;2022-12-10T00:54:17;100512.94;;;20.01;57.08
6942;BME280;3510;43.200;27.920;2022-12-10T00:56:44;100513.66;;;20.18;56.74
6942;BME280;3510;43.200;27.920;2022-12-10T00:59:12;100504.97;;;19.34;58.75
6942;BME280;3510;43.200;27.920;2022-12-10T01:01:41;100508.72;;;19.42;58.76
6942;BME280;3510;43.200;27.920;2022-12-10T01:04:12;100510.00;;;19.71;57.89
6942;BME280;3510;43.200;27.920;2022-12-10T01:06:44;100483.97;;;20.01;57.02
6942;BME280;3510;43.200;27.920;2022-12-10T01:09:14;100506.25;;;20.03;57.21
6942;BME280;3510;43.200;27.920;2022-12-10T01:11:44;100500.31;;;20.25;55.99
6942;BME280;3510;43.200;27.920;2022-12-10T01:14:13;100488.22;;;20.00;56.50
6942;BME280;3510;43.200;27.920;2022-12-10T01:16:43;100497.09;;;19.68;57.72
6942;BME280;3510;43.200;27.920;2022-12-10T01:19:10;100496.44;;;19.33;58.72
6942;BME280;3510;43.200;27.920;2022-12-10T01:21:38;100454.66;;;19.31;58.45
6942;BME280;3510;43.200;27.920;2022-12-10T01:24:06;100475.00;;;19.49;57.99
6942;BME280;3510;43.200;27.920;2022-12-10T01:26:34;100491.06;;;19.27;58.99
6942;BME280;3510;43.200;27.920;2022-12-10T01:29:03;100479.59;;;19.18;59.48
6942;BME280;3510;43.200;27.920;2022-12-10T01:31:32;100481.94;;;19.32;59.15
6942;BME280;3510;43.200;27.920;2022-12-10T01:34:00;100465.91;;;19.75;57.67
6942;BME280;3510;43.200;27.920;2022-12-10T01:36:30;100478.84;;;19.40;58.75
6942;BME280;3510;43.200;27.920;2022-12-10T01:38:59;100454.19;;;19.01;60.18
6942;BME280;3510;43.200;27.920;2022-12-10T01:41:28;100461.34;;;19.49;58.79
6942;BME280;3510;43.200;27.920;2022-12-10T01:43:58;100470.69;;;19.48;58.62
6942;BME280;3510;43.200;27.920;2022-12-10T01:46:28;100467.41;;;19.70;58.11
6942;BME280;3510;43.200;27.920;2022-12-10T01:48:56;100469.47;;;19.59;58.27
6942;BME280;3510;43.200;27.920;2022-12-10T01:51:26;100465.41;;;19.63;58.23
6942;BME280;3510;43.200;27.920;2022-12-10T01:53:54;100407.84;;;19.10;58.61
6942;BME280;3510;43.200;27.920;2022-12-10T01:56:22;100449.91;;;19.20;59.69
6942;BME280;3510;43.200;27.920;2022-12-10T01:58:51;100414.25;;;19.02;59.22
6942;BME280;3510;43.200;27.920;2022-12-10T02:01:28;100439.84;;;18.84;60.67
6942;BME280;3510;43.200;27.920;2022-12-10T02:04:06;100456.63;;;19.98;57.83
6942;BME280;3510;43.200;27.920;2022-12-10T02:06:45;100421.31;;;19.88;57.03
6942;BME280;3510;43.200;27.920;2022-12-10T02:09:19;100444.44;;;19.91;57.22
6942;BME280;3510;43.200;27.920;2022-12-10T02:11:59;100440.13;;;19.50;58.39
6942;BME280;3510;43.200;27.920;2022-12-10T02:14:32;100442.22;;;19.58;58.34
6942;BME280;3510;43.200;27.920;2022-12-10T02:17:07;100409.50;;;19.29;58.68
6942;BME280;3510;43.200;27.920;2022-12-10T02:19:52;100438.63;;;19.74;57.60
6942;BME280;3510;43.200;27.920;2022-12-10T02:22:23;100416.34;;;19.91;57.31
6942;BME280;3510;43.200;27.920;2022-12-10T02:24:52;100428.84;;;20.06;56.84
6942;BME280;3510;43.200;27.920;2022-12-10T02:27:25;100431.66;;;20.79;54.39
6942;BME280;3510;43.200;27.920;2022-12-10T02:29:57;100429.63;;;20.48;55.28
6942;BME280;3510;43.200;27.920;2022-12-10T02:32:31;100434.88;;;20.98;53.98
6942;BME280;3510;43.200;27.920;2022-12-10T02:35:04;100421.19;;;20.49;54.86
6942;BME280;3510;43.200;27.920;2022-12-10T02:37:35;100426.19;;;20.25;55.76
6942;BME280;3510;43.200;27.920;2022-12-10T02:40:06;100427.41;;;20.80;54.42
6942;BME280;3510;43.200;27.920;2022-12-10T02:42:38;100429.34;;;21.10;53.46
6942;BME280;3510;43.200;27.920;2022-12-10T02:45:10;100428.72;;;21.17;53.40
6942;BME280;3510;43.200;27.920;2022-12-10T02:47:38;100438.84;;;21.36;53.03
6942;BME280;3510;43.200;27.920;2022-12-10T02:50:08;100427.91;;;21.40;52.48
6942;BME280;3510;43.200;27.920;2022-12-10T02:52:36;100428.63;;;20.66;54.82
6942;BME280;3510;43.200;27.920;2022-12-10T02:55:04;100423.28;;;20.84;54.74
6942;BME280;3510;43.200;27.920;2022-12-10T02:57:35;100373.22;;;20.44;55.15
6942;BME280;3510;43.200;27.920;2022-12-10T03:00:09;100415.22;;;20.95;54.42
6942;BME280;3510;43.200;27.920;2022-12-10T03:02:54;100374.28;;;20.95;53.91
6942;BME280;3510;43.200;27.920;2022-12-10T03:05:33;100409.03;;;20.00;57.25
6942;BME280;3510;43.200;27.920;2022-12-10T03:08:06;100392.00;;;20.44;56.24
6942;BME280;3510;43.200;27.920;2022-12-10T03:10:39;100378.56;;;20.27;56.11
6942;BME280;3510;43.200;27.920;2022-12-10T03:13:12;100395.44;;;20.01;57.17
6942;BME280;3510;43.200;27.920;2022-12-10T03:15:44;100394.53;;;19.78;57.97
6942;BME280;3510;43.200;27.920;2022-12-10T03:18:12;100365.78;;;19.02;60.11
6942;BME280;3510;43.200;27.920;2022-12-10T03:20:44;100403.13;;;20.24;57.16
6942;BME280;3510;43.200;27.920;2022-12-10T03:23:15;100392.66;;;19.95;57.75
6942;BME280;3510;43.200;27.920;2022-12-10T03:25:44;100397.00;;;19.56;58.30
6942;BME280;3510;43.200;27.920;2022-12-10T03:28:18;100388.97;;;20.32;56.29
6942;BME280;3510;43.200;27.920;2022-12-10T03:30:49;100351.09;;;19.99;56.83
6942;BME280;3510;43.200;27.920;2022-12-10T03:33:17;100363.50;;;19.90;56.83
6942;BME280;3510;43.200;27.920;2022-12-10T03:35:45;100396.53;;;20.29;56.20
6942;BME280;3510;43.200;27.920;2022-12-10T03:38:13;100387.13;;;20.50;56.14
6942;BME280;3510;43.200;27.920;2022-12-10T03:40:41;100394.47;;;21.13;54.26
6942;BME280;3510;43.200;27.920;2022-12-10T03:43:12;100376.16;;;21.50;53.12
6942;BME280;3510;43.200;27.920;2022-12-10T03:45:39;100366.50;;;21.18;53.65
6942;BME280;3510;43.200;27.920;2022-12-10T03:48:09;100380.56;;;21.05;53.69
6942;BME280;3510;43.200;27.920;2022-12-10T03:50:36;100355.91;;;21.33;53.00
6942;BME280;3510;43.200;27.920;2022-12-10T03:53:04;100391.72;;;21.57;53.08
6942;BME280;3510;43.200;27.920;2022-12-10T03:55:31;100384.91;;;20.60;55.06
6942;BME280;3510;43.200;27.920;2022-12-10T03:57:59;100391.63;;;21.04;53.61
6942;BME280;3510;43.200;27.920;2022-12-10T04:00:26;100377.16;;;21.30;53.48
6942;BME280;3510;43.200;27.920;2022-12-10T04:02:53;100364.59;;;21.62;52.14
6942;BME280;3510;43.200;27.920;2022-12-10T04:05:22;100371.81;;;21.75;51.62
6942;BME280;3510;43.200;27.920;2022-12-10T04:07:49;100370.38;;;21.56;52.07
6942;BME280;3510;43.200;27.920;2022-12-10T04:10:15;100363.31;;;21.76;51.16
6942;BME280;3510;43.200;27.920;2022-12-10T04:12:42;100359.97;;;21.52;51.90
6942;BME280;3510;43.200;27.920;2022-12-10T04:15:29;100368.03;;;20.65;54.19
6942;BME280;3510;43.200;27.920;2022-12-10T04:18:13;100376.13;;;20.99;53.53
6942;BME280;3510;43.200;27.920;2022-12-10T04:20:41;100383.38;;;21.13;53.37
6942;BME280;3510;43.200;27.920;2022-12-10T04:23:26;100379.56;;;21.25;53.03
6942;BME280;3510;43.200;27.920;2022-12-10T04:26:09;100379.34;;;21.19;54.01
6942;BME280;3510;43.200;27.920;2022-12-10T04:28:53;100375.91;;;21.43;53.80
6942;BME280;3510;43.200;27.920;2022-12-10T04:31:20;100373.91;;;21.87;52.73
6942;BME280;3510;43.200;27.920;2022-12-10T04:33:47;100370.66;;;20.90;54.94
6942;BME280;3510;43.200;27.920;2022-12-10T04:36:15;100365.91;;;21.01;54.59
6942;BME280;3510;43.200;27.920;2022-12-10T04:38:42;100360.16;;;20.59;55.83
6942;BME280;3510;43.200;27.920;2022-12-10T04:41:09;100354.63;;;20.70;54.92
6942;BME280;3510;43.200;27.920;2022-12-10T04:43:40;100370.25;;;20.78;55.11
6942;BME280;3510;43.200;27.920;2022-12-10T04:46:21;100370.88;;;20.27;56.43
6942;BME280;3510;43.200;27.920;2022-12-10T04:48:47;100362.22;;;20.01;56.96
6942;BME280;3510;43.200;27.920;2022-12-10T04:57:20;100373.53;;;20.06;57.53
6942;BME280;3510;43.200;27.920;2022-12-10T04:59:46;100373.28;;;20.00;57.48
6942;BME280;3510;43.200;27.920;2022-12-10T05:02:13;100372.38;;;20.66;55.75
6942;BME280;3510;43.200;27.920;2022-12-10T05:04:40;100373.44;;;20.05;56.36
6942;BME280;3510;43.200;27.920;2022-12-10T05:07:20;100376.38;;;20.14;55.91
6942;BME280;3510;43.200;27.920;2022-12-10T05:10:01;100373.50;;;19.84;55.94
6942;BME280;3510;43.200;27.920;2022-12-10T05:12:43;100372.34;;;20.21;55.40
6942;BME280;3510;43.200;27.920;2022-12-10T05:15:10;100382.91;;;20.08;55.84
6942;BME280;3510;43.200;27.920;2022-12-10T05:17:36;100391.47;;;20.53;54.59
6942;BME280;3510;43.200;27.920;2022-12-10T05:20:03;100389.38;;;19.77;56.83
6942;BME280;3510;43.200;27.920;2022-12-10T05:22:30;100397.59;;;19.70;57.68
6942;BME280;3510;43.200;27.920;2022-12-10T05:25:14;100390.03;;;19.52;58.40
6942;BME280;3510;43.200;27.920;2022-12-10T05:27:43;100394.84;;;19.65;57.97
6942;BME280;3510;43.200;27.920;2022-12-10T05:30:23;100396.75;;;18.90;59.10
6942;BME280;3510;43.200;27.920;2022-12-10T05:32:50;100391.63;;;19.09;60.30
6942;BME280;3510;43.200;27.920;2022-12-10T05:35:30;100393.22;;;19.67;58.09
6942;BME280;3510;43.200;27.920;2022-12-10T05:37:57;100390.63;;;19.66;57.93
6942;BME280;3510;43.200;27.920;2022-12-10T05:40:24;100387.44;;;19.31;59.04
6942;BME280;3510;43.200;27.920;2022-12-10T05:42:52;100383.53;;;18.99;60.22
6942;BME280;3510;43.200;27.920;2022-12-10T05:45:19;100383.09;;;19.49;58.60
6942;BME280;3510;43.200;27.920;2022-12-10T05:47:59;100390.53;;;20.28;56.59
6942;BME280;3510;43.200;27.920;2022-12-10T05:50:26;100396.78;;;21.30;53.32
6942;BME280;3510;43.200;27.920;2022-12-10T05:52:53;100404.63;;;19.35;56.90
6942;BME280;3510;43.200;27.920;2022-12-10T05:55:19;100403.91;;;20.21;54.29
6942;BME280;3510;43.200;27.920;2022-12-10T05:57:46;100402.56;;;20.53;54.26
6942;BME280;3510;43.200;27.920;2022-12-10T06:00:29;100400.66;;;20.70;54.03
6942;BME280;3510;43.200;27.920;2022-12-10T06:03:09;100404.22;;;21.23;52.78
6942;BME280;3510;43.200;27.920;2022-12-10T06:05:36;100402.00;;;21.33;52.13
6942;BME280;3510;43.200;27.920;2022-12-10T06:08:04;100398.69;;;21.35;52.25
6942;BME280;3510;43.200;27.920;2022-12-10T06:10:30;100396.38;;;20.69;54.47
6942;BME280;3510;43.200;27.920;2022-12-10T06:12:57;100395.78;;;20.76;53.89
6942;BME280;3510;43.200;27.920;2022-12-10T06:15:24;100398.94;;;20.03;56.20
6942;BME280;3510;43.200;27.920;2022-12-10T06:17:53;100385.28;;;19.80;57.42
6942;BME280;3510;43.200;27.920;2022-12-10T06:20:20;100387.47;;;20.15;57.18
6942;BME280;3510;43.200;27.920;2022-12-10T06:22:47;100389.88;;;20.12;57.43
6942;BME280;3510;43.200;27.920;2022-12-10T06:25:14;100394.09;;;19.68;58.36
6942;BME280;3510;43.200;27.920;2022-12-10T06:27:40;100387.44;;;19.92;57.36
6942;BME280;3510;43.200;27.920;2022-12-10T06:30:08;100390.34;;;19.19;59.15
6942;BME280;3510;43.200;27.920;2022-12-10T06:32:35;100384.22;;;19.35;59.25
6942;BME280;3510;43.200;27.920;2022-12-10T06:35:04;100382.41;;;19.73;57.93
6942;BME280;3510;43.200;27.920;2022-12-10T06:37:31;100385.97;;;19.36;58.62
6942;BME280;3510;43.200;27.920;2022-12-10T06:39:58;100392.44;;;19.49;58.68
6942;BME280;3510;43.200;27.920;2022-12-10T06:42:25;100388.19;;;20.12;57.26
6942;BME280;3510;43.200;27.920;2022-12-10T06:44:52;100394.13;;;20.78;55.42
6942;BME280;3510;43.200;27.920;2022-12-10T06:47:19;100399.59;;;20.88;54.84
6942;BME280;3510;43.200;27.920;2022-12-10T06:49:45;100396.00;;;23.29;49.05
6942;BME280;3510;43.200;27.920;2022-12-10T06:52:14;100404.75;;;23.04;49.05
6942;BME280;3510;43.200;27.920;2022-12-10T06:54:42;100402.56;;;22.88;49.40
6942;BME280;3510;43.200;27.920;2022-12-10T06:57:09;100402.00;;;22.68;49.97
6942;BME280;3510;43.200;27.920;2022-12-10T07:02:11;100402.13;;;22.14;51.38
6942;BME280;3510;43.200;27.920;2022-12-10T07:04:38;100404.44;;;22.35;50.68
6942;BME280;3510;43.200;27.920;2022-12-10T07:07:05;100402.75;;;22.35;50.95
6942;BME280;3510;43.200;27.920;2022-12-10T07:09:34;100395.81;;;22.61;50.27
6942;BME280;3510;43.200;27.920;2022-12-10T07:12:03;100394.94;;;22.61;50.16
6942;BME280;3510;43.200;27.920;2022-12-10T07:14:30;100390.47;;;22.84;49.78
6942;BME280;3510;43.200;27.920;2022-12-10T07:17:00;100390.13;;;23.02;49.28
6942;BME280;3510;43.200;27.920;2022-12-10T07:19:30;100367.22;;;23.42;48.00
6942;BME280;3510;43.200;27.920;2022-12-10T07:21:59;100391.91;;;24.45;46.11
6942;BME280;3510;43.200;27.920;2022-12-10T07:24:26;100341.88;;;25.21;43.76
6942;BME280;3510;43.200;27.920;2022-12-10T07:26:55;100368.75;;;25.87;42.38
6942;BME280;3510;43.200;27.920;2022-12-10T07:31:59;100389.31;;;25.82;41.79
6942;BME280;3510;43.200;27.920;2022-12-10T07:34:29;100394.16;;;24.70;43.51
6942;BME280;3510;43.200;27.920;2022-12-10T07:36:56;100399.53;;;25.28;42.14
6942;BME280;3510;43.200;27.920;2022-12-10T07:39:24;100381.16;;;22.87;47.48
6942;BME280;3510;43.200;27.920;2022-12-10T07:42:06;100364.22;;;23.59;46.47
6942;BME280;3510;43.200;27.920;2022-12-10T07:44:33;100357.59;;;24.06;45.00
6942;BME280;3510;43.200;27.920;2022-12-10T07:47:00;100393.66;;;24.90;43.59
6942;BME280;3510;43.200;27.920;2022-12-10T07:49:29;100375.53;;;24.41;44.55
6942;BME280;3510;43.200;27.920;2022-12-10T07:51:56;100382.38;;;24.81;43.82
6942;BME280;3510;43.200;27.920;2022-12-10T07:54:25;100386.59;;;25.22;43.34
6942;BME280;3510;43.200;27.920;2022-12-10T07:56:53;100382.31;;;25.24;42.88
6942;BME280;3510;43.200;27.920;2022-12-10T07:59:35;100374.84;;;24.92;43.06
6942;BME280;3510;43.200;27.920;2022-12-10T08:02:02;100321.91;;;25.08;42.91
6942;BME280;3510;43.200;27.920;2022-12-10T08:04:32;100371.00;;;25.69;42.38
6942;BME280;3510;43.200;27.920;2022-12-10T08:06:59;100373.19;;;24.52;44.37
6942;BME280;3510;43.200;27.920;2022-12-10T08:09:26;100366.88;;;23.63;46.50
6942;BME280;3510;43.200;27.920;2022-12-10T08:11:53;100368.34;;;23.54;46.91
6942;BME280;3510;43.200;27.920;2022-12-10T08:14:20;100366.09;;;24.02;45.74
6942;BME280;3510;43.200;27.920;2022-12-10T08:16:49;100372.09;;;24.41;45.37
6942;BME280;3510;43.200;27.920;2022-12-10T08:19:16;100366.38;;;22.79;48.31
6942;BME280;3510;43.200;27.920;2022-12-10T08:21:44;100369.66;;;24.09;45.98
6942;BME280;3510;43.200;27.920;2022-12-10T08:24:12;100369.28;;;24.71;44.67
6942;BME280;3510;43.200;27.920;2022-12-10T08:26:39;100361.28;;;25.49;43.01
6942;BME280;3510;43.200;27.920;2022-12-10T08:31:43;100350.91;;;25.99;42.57
6942;BME280;3510;43.200;27.920;2022-12-10T08:34:16;100344.81;;;24.93;44.36
6942;BME280;3510;43.200;27.920;2022-12-10T08:36:44;100334.56;;;23.72;47.54
6942;BME280;3510;43.200;27.920;2022-12-10T08:39:14;100343.81;;;24.41;45.97
6942;BME280;3510;43.200;27.920;2022-12-10T08:41:43;100332.47;;;24.75;45.15
6942;BME280;3510;43.200;27.920;2022-12-10T08:44:11;100319.81;;;25.35;43.85
6942;BME280;3510;43.200;27.920;2022-12-10T08:46:40;100282.56;;;25.71;42.65
6942;BME280;3510;43.200;27.920;2022-12-10T08:49:07;100330.88;;;25.81;42.50
6942;BME280;3510;43.200;27.920;2022-12-10T08:51:36;100276.88;;;25.36;43.62
6942;BME280;3510;43.200;27.920;2022-12-10T08:54:03;100326.22;;;26.21;41.87
6942;BME280;3510;43.200;27.920;2022-12-10T08:56:30;100309.41;;;27.39;40.69
6942;BME280;3510;43.200;27.920;2022-12-10T08:58:58;100281.97;;;26.59;41.03
6942;BME280;3510;43.200;27.920;2022-12-10T09:01:26;100318.97;;;27.54;39.84
6942;BME280;3510;43.200;27.920;2022-12-10T09:03:53;100314.38;;;27.15;40.06
6942;BME280;3510;43.200;27.920;2022-12-10T09:06:21;100292.06;;;26.41;41.08
6942;BME280;3510;43.200;27.920;2022-12-10T09:08:51;100307.78;;;27.58;39.55
6942;BME280;3510;43.200;27.920;2022-12-10T09:11:21;100309.22;;;26.37;41.49
6942;BME280;3510;43.200;27.920;2022-12-10T09:13:49;100301.44;;;26.34;42.45
6942;BME280;3510;43.200;27.920;2022-12-10T09:16:17;100227.47;;;25.65;42.85
6942;BME280;3510;43.200;27.920;2022-12-10T09:18:44;100290.63;;;26.63;42.16
6942;BME280;3510;43.200;27.920;2022-12-10T09:21:14;100268.06;;;27.44;40.79
6942;BME280;3510;43.200;27.920;2022-12-10T09:23:42;100286.44;;;27.84;39.63
6942;BME280;3510;43.200;27.920;2022-12-10T09:26:13;100295.19;;;28.10;39.48
6942;BME280;3510;43.200;27.920;2022-12-10T09:28:41;100278.03;;;28.37;38.83
6942;BME280;3510;43.200;27.920;2022-12-10T09:31:09;100286.56;;;28.04;39.22
6942;BME280;3510;43.200;27.920;2022-12-10T09:33:37;100257.34;;;26.98;40.83
6942;BME280;3510;43.200;27.920;2022-12-10T09:36:05;100273.56;;;27.93;39.65
6942;BME280;3510;43.200;27.920;2022-12-10T09:38:34;100263.19;;;27.90;39.07
6942;BME280;3510;43.200;27.920;2022-12-10T09:41:03;100263.72;;;27.40;40.01
6942;BME280;3510;43.200;27.920;2022-12-10T09:43:36;100265.94;;;26.13;42.88
6942;BME280;3510;43.200;27.920;2022-12-10T09:46:06;100267.63;;;25.50;44.32
6942;BME280;3510;43.200;27.920;2022-12-10T09:48:40;100257.47;;;26.23;43.04
6942;BME280;3510;43.200;27.920;2022-12-10T09:51:17;100248.66;;;26.06;42.75
6942;BME280;3510;43.200;27.920;2022-12-10T09:53:47;100248.53;;;26.73;41.55
6942;BME280;3510;43.200;27.920;2022-12-10T09:56:18;100243.53;;;26.09;42.65
6942;BME280;3510;43.200;27.920;2022-12-10T10:10:30;100220.25;;;26.88;40.45
6942;BME280;3510;43.200;27.920;2022-12-10T10:13:12;100220.94;;;27.91;38.88
6942;BME280;3510;43.200;27.920;2022-12-10T10:15:54;100222.31;;;27.32;39.71
6942;BME280;3510;43.200;27.920;2022-12-10T10:18:23;100211.66;;;29.02;36.84
6942;BME280;3510;43.200;27.920;2022-12-10T10:20:52;100220.31;;;29.02;36.19
6942;BME280;3510;43.200;27.920;2022-12-10T10:23:18;100206.25;;;27.82;38.03
6942;BME280;3510;43.200;27.920;2022-12-10T10:28:42;100195.16;;;28.28;37.96
6942;BME280;3510;43.200;27.920;2022-12-10T10:31:25;100188.44;;;25.37;42.71
6942;BME280;3510;43.200;27.920;2022-12-10T10:33:54;100181.41;;;28.47;37.76
6942;BME280;3510;43.200;27.920;2022-12-10T10:36:24;100194.28;;;28.13;38.06
6942;BME280;3510;43.200;27.920;2022-12-10T10:38:52;100187.78;;;26.25;40.75
6942;BME280;3510;43.200;27.920;2022-12-10T10:41:19;100171.34;;;24.87;43.86
6942;BME280;3510;43.200;27.920;2022-12-10T10:46:58;100170.06;;;25.78;42.17
6942;BME280;3510;43.200;27.920;2022-12-10T10:49:28;100169.66;;;26.17;41.58
6942;BME280;3510;43.200;27.920;2022-12-10T10:51:59;100151.00;;;26.43;41.13
6942;BME280;3510;43.200;27.920;2022-12-10T10:54:35;100148.00;;;26.00;41.78
6942;BME280;3510;43.200;27.920;2022-12-10T10:57:11;100149.19;;;26.36;40.71
6942;BME280;3510;43.200;27.920;2022-12-10T10:59:40;100126.66;;;26.16;40.38
6942;BME280;3510;43.200;27.920;2022-12-10T11:02:19;100144.22;;;25.73;41.43
6942;BME280;3510;43.200;27.920;2022-12-10T11:04:49;100149.72;;;25.99;41.13
6942;BME280;3510;43.200;27.920;2022-12-10T11:07:22;100144.03;;;25.58;41.81
6942;BME280;3510;43.200;27.920;2022-12-10T11:09:52;100132.34;;;25.81;41.24
6942;BME280;3510;43.200;27.920;2022-12-10T11:12:34;100139.66;;;25.49;41.97
6942;BME280;3510;43.200;27.920;2022-12-10T11:15:28;100132.72;;;25.47;42.27
6942;BME280;3510;43.200;27.920;2022-12-10T11:17:57;100131.53;;;25.20;42.83
6942;BME280;3510;43.200;27.920;2022-12-10T11:20:27;100127.56;;;25.47;42.55
6942;BME280;3510;43.200;27.920;2022-12-10T11:22:57;100137.38;;;25.77;41.05
6942;BME280;3510;43.200;27.920;2022-12-10T11:25:35;100136.88;;;26.04;40.89
6942;BME280;3510;43.200;27.920;2022-12-10T11:28:15;100129.25;;;25.43;41.62
6942;BME280;3510;43.200;27.920;2022-12-10T11:30:51;100116.94;;;25.89;40.46
6942;BME280;3510;43.200;27.920;2022-12-10T11:33:27;100112.69;;;25.23;42.41
6942;BME280;3510;43.200;27.920;2022-12-10T11:36:05;100106.84;;;26.14;40.28
6942;BME280;3510;43.200;27.920;2022-12-10T11:38:43;100117.44;;;25.59;41.34
6942;BME280;3510;43.200;27.920;2022-12-10T11:41:20;100106.44;;;25.75;41.47
6942;BME280;3510;43.200;27.920;2022-12-10T11:44:08;100060.19;;;25.86;41.00
6942;BME280;3510;43.200;27.920;2022-12-10T11:47:04;100102.06;;;25.67;41.04
6942;BME280;3510;43.200;27.920;2022-12-10T11:49:43;100090.66;;;26.25;40.43
6942;BME280;3510;43.200;27.920;2022-12-10T11:52:23;100107.19;;;26.47;39.83
6942;BME280;3510;43.200;27.920;2022-12-10T11:55:02;100101.25;;;26.56;39.87
6942;BME280;3510;43.200;27.920;2022-12-10T11:57:40;100070.81;;;26.20;40.33
6942;BME280;3510;43.200;27.920;2022-12-10T12:00:19;100107.84;;;27.56;38.15
6942;BME280;3510;43.200;27.920;2022-12-10T12:03:27;100101.53;;;27.02;39.10
6942;BME280;3510;43.200;27.920;2022-12-10T12:06:10;100102.13;;;26.61;39.81
6942;BME280;3510;43.200;27.920;2022-12-10T12:08:50;100099.75;;;26.89;39.25
6942;BME280;3510;43.200;27.920;2022-12-10T12:11:32;100097.47;;;27.47;38.07
6942;BME280;3510;43.200;27.920;2022-12-10T12:14:07;100102.41;;;25.99;40.91
6942;BME280;3510;43.200;27.920;2022-12-10T12:16:42;100079.22;;;26.00;40.23
6942;BME280;3510;43.200;27.920;2022-12-10T12:19:14;100109.44;;;26.12;40.42
6942;BME280;3510;43.200;27.920;2022-12-10T12:21:44;100118.13;;;25.47;41.36
6942;BME280;3510;43.200;27.920;2022-12-10T12:24:21;100097.09;;;25.14;41.53
6942;BME280;3510;43.200;27.920;2022-12-10T12:26:52;100117.94;;;25.29;41.19
6942;BME280;3510;43.200;27.920;2022-12-10T12:29:21;100116.16;;;25.28;41.63
6942;BME280;3510;43.200;27.920;2022-12-10T12:31:56;100112.41;;;25.71;40.57
6942;BME280;3510;43.200;27.920;2022-12-10T12:34:29;100104.13;;;25.98;39.90
6942;BME280;3510;43.200;27.920;2022-12-10T12:37:02;100106.72;;;25.97;40.11
6942;BME280;3510;43.200;27.920;2022-12-10T12:39:34;100086.38;;;26.32;39.20
6942;BME280;3510;43.200;27.920;2022-12-10T12:42:12;100092.97;;;25.26;41.44
6942;BME280;3510;43.200;27.920;2022-12-10T12:45:02;100090.19;;;25.79;40.29
6942;BME280;3510;43.200;27.920;2022-12-10T12:47:36;100097.53;;;26.26;39.47
6942;BME280;3510;43.200;27.920;2022-12-10T12:50:18;100095.38;;;25.84;40.91
6942;BME280;3510;43.200;27.920;2022-12-10T12:52:52;100076.16;;;23.87;45.18
6942;BME280;3510;43.200;27.920;2022-12-10T12:55:22;100084.63;;;22.62;48.30
6942;BME280;3510;43.200;27.920;2022-12-10T12:57:53;100081.88;;;22.20;49.68
6942;BME280;3510;43.200;27.920;2022-12-10T13:00:21;100070.47;;;21.77;51.13
6942;BME280;3510;43.200;27.920;2022-12-10T13:02:52;100065.72;;;21.00;53.49
6942;BME280;3510;43.200;27.920;2022-12-10T13:05:23;100074.53;;;21.10;53.40
6942;BME280;3510;43.200;27.920;2022-12-10T13:08:29;100056.44;;;20.24;55.74
6942;BME280;3510;43.200;27.920;2022-12-10T13:11:16;100057.09;;;19.92;57.34
6942;BME280;3510;43.200;27.920;2022-12-10T13:16:34;100067.22;;;19.42;59.10
6942;BME280;3510;43.200;27.920;2022-12-10T13:21:56;100071.63;;;19.24;59.88
6942;BME280;3510;43.200;27.920;2022-12-10T13:27:16;100064.00;;;19.70;58.64
6942;BME280;3510;43.200;27.920;2022-12-10T13:29:45;100067.75;;;20.05;57.64
6942;BME280;3510;43.200;27.920;2022-12-10T13:32:15;100060.59;;;19.70;58.55
6942;BME280;3510;43.200;27.920;2022-12-10T13:34:43;100072.41;;;19.68;58.78
6942;BME280;3510;43.200;27.920;2022-12-10T13:42:39;100080.63;;;19.61;59.16
6942;BME280;3510;43.200;27.920;2022-12-10T13:45:26;100079.09;;;19.42;59.46
6942;BME280;3510;43.200;27.920;2022-12-10T13:47:54;100069.94;;;19.47;59.57
6942;BME280;3510;43.200;27.920;2022-12-10T13:50:24;100059.44;;;19.39;60.05
6942;BME280;3510;43.200;27.920;2022-12-10T13:53:00;100053.81;;;19.72;59.06
6942;BME280;3510;43.200;27.920;2022-12-10T13:55:31;100056.66;;;19.79;58.86
6942;BME280;3510;43.200;27.920;2022-12-10T13:58:08;100060.78;;;19.76;58.91
6942;BME280;3510;43.200;27.920;2022-12-10T14:00:41;100058.69;;;20.14;57.92
6942;BME280;3510;43.200;27.920;2022-12-10T14:03:22;100064.56;;;20.91;55.34
6942;BME280;3510;43.200;27.920;2022-12-10T14:06:02;100063.75;;;20.65;55.83
6942;BME280;3510;43.200;27.920;2022-12-10T14:08:33;100067.72;;;21.11;55.07